sensor_id;sensor_type;location;lat;lon;timestamp;P1;durP1;ratioP1;P2;durP2;ratioP2
72728;SDS011;60843;52.062;4.508;2022-08-03T00:01:00;13.50;;;1.60;;
72728;SDS011;60843;52.062;4.508;2022-08-03T00:03:25;14.60;;;2.03;;
72728;SDS011;60843;52.062;4.508;2022-08-03T00:05:51;5.10;;;1.35;;
72728;SDS011;60843;52.062;4.508;2022-08-03T00:08:17;13.50;;;1.75;;
72728;SDS011;60843;52.062;4.508;2022-08-03T00:10:42;7.30;;;1.30;;
72728;SDS011;60843;52.062;4.508;2022-08-03T00:13:08;8.82;;;1.92;;
72728;SDS011;60843;52.062;4.508;2022-08-03T00:15:33;13.40;;;1.80;;
72728;SDS011;60843;52.062;4.508;2022-08-03T00:17:59;9.50;;;1.60;;
72728;SDS011;60843;52.062;4.508;2022-08-03T00:20:25;12.93;;;1.67;;
72728;SDS011;60843;52.062;4.508;2022-08-03T00:22:50;8.85;;;1.65;;
72728;SDS011;60843;52.062;4.508;2022-08-03T00:25:16;11.73;;;1.90;;
72728;SDS011;60843;52.062;4.508;2022-08-03T00:27:41;8.55;;;1.60;;
72728;SDS011;60843;52.062;4.508;2022-08-03T00:30:07;11.37;;;1.87;;
72728;SDS011;60843;52.062;4.508;2022-08-03T00:32:33;7.20;;;1.35;;
72728;SDS011;60843;52.062;4.508;2022-08-03T00:34:58;9.10;;;1.90;;
72728;SDS011;60843;52.062;4.508;2022-08-03T00:37:23;9.87;;;1.80;;
72728;SDS011;60843;52.062;4.508;2022-08-03T00:39:49;9.02;;;1.75;;
72728;SDS011;60843;52.062;4.508;2022-08-03T00:42:14;6.87;;;1.53;;
72728;SDS011;60843;52.062;4.508;2022-08-03T00:44:40;12.95;;;1.90;;
72728;SDS011;60843;52.062;4.508;2022-08-03T00:47:07;10.02;;;1.77;;
72728;SDS011;60843;52.062;4.508;2022-08-03T00:49:34;10.40;;;1.92;;
72728;SDS011;60843;52.062;4.508;2022-08-03T00:52:00;10.35;;;1.48;;
72728;SDS011;60843;52.062;4.508;2022-08-03T00:54:26;9.35;;;1.42;;
72728;SDS011;60843;52.062;4.508;2022-08-03T00:56:51;15.82;;;2.20;;
72728;SDS011;60843;52.062;4.508;2022-08-03T00:59:17;10.23;;;1.98;;
72728;SDS011;60843;52.062;4.508;2022-08-03T01:01:43;10.85;;;1.60;;
72728;SDS011;60843;52.062;4.508;2022-08-03T01:04:08;8.55;;;1.70;;
72728;SDS011;60843;52.062;4.508;2022-08-03T01:15:02;7.40;;;1.65;;
72728;SDS011;60843;52.062;4.508;2022-08-03T01:17:33;11.48;;;1.83;;
72728;SDS011;60843;52.062;4.508;2022-08-03T01:20:26;8.50;;;1.55;;
72728;SDS011;60843;52.062;4.508;2022-08-03T01:23:13;8.48;;;1.70;;
72728;SDS011;60843;52.062;4.508;2022-08-03T01:32:40;7.18;;;1.75;;
72728;SDS011;60843;52.062;4.508;2022-08-03T01:35:14;9.43;;;1.50;;
72728;SDS011;60843;52.062;4.508;2022-08-03T01:37:52;10.18;;;2.38;;
72728;SDS011;60843;52.062;4.508;2022-08-03T01:40:21;12.70;;;1.98;;
72728;SDS011;60843;52.062;4.508;2022-08-03T01:42:49;11.25;;;2.45;;
72728;SDS011;60843;52.062;4.508;2022-08-03T01:45:15;10.32;;;1.70;;
72728;SDS011;60843;52.062;4.508;2022-08-03T01:47:44;9.15;;;1.95;;
72728;SDS011;60843;52.062;4.508;2022-08-03T01:50:11;6.13;;;1.55;;
72728;SDS011;60843;52.062;4.508;2022-08-03T01:52:38;6.90;;;1.65;;
72728;SDS011;60843;52.062;4.508;2022-08-03T01:55:05;6.82;;;1.60;;
72728;SDS011;60843;52.062;4.508;2022-08-03T01:57:32;5.22;;;1.65;;
72728;SDS011;60843;52.062;4.508;2022-08-03T01:59:59;10.55;;;1.80;;
72728;SDS011;60843;52.062;4.508;2022-08-03T02:02:25;9.52;;;1.50;;
72728;SDS011;60843;52.062;4.508;2022-08-03T02:04:52;6.90;;;1.63;;
72728;SDS011;60843;52.062;4.508;2022-08-03T02:07:19;12.07;;;2.13;;
72728;SDS011;60843;52.062;4.508;2022-08-03T02:09:45;10.07;;;1.80;;
72728;SDS011;60843;52.062;4.508;2022-08-03T02:12:14;10.50;;;1.67;;
72728;SDS011;60843;52.062;4.508;2022-08-03T02:14:40;15.00;;;2.15;;
72728;SDS011;60843;52.062;4.508;2022-08-03T02:17:07;10.48;;;1.73;;
72728;SDS011;60843;52.062;4.508;2022-08-03T02:19:33;10.57;;;2.00;;
72728;SDS011;60843;52.062;4.508;2022-08-03T02:22:04;13.77;;;2.20;;
72728;SDS011;60843;52.062;4.508;2022-08-03T02:24:33;11.48;;;1.92;;
72728;SDS011;60843;52.062;4.508;2022-08-03T02:26:58;7.50;;;1.90;;
72728;SDS011;60843;52.062;4.508;2022-08-03T02:29:26;8.50;;;2.10;;
72728;SDS011;60843;52.062;4.508;2022-08-03T02:31:53;13.63;;;1.88;;
72728;SDS011;60843;52.062;4.508;2022-08-03T02:34:22;7.03;;;1.50;;
72728;SDS011;60843;52.062;4.508;2022-08-03T02:36:51;6.70;;;1.83;;
72728;SDS011;60843;52.062;4.508;2022-08-03T02:39:18;10.52;;;1.95;;
72728;SDS011;60843;52.062;4.508;2022-08-03T02:41:46;12.68;;;2.22;;
72728;SDS011;60843;52.062;4.508;2022-08-03T02:44:14;6.53;;;1.73;;
72728;SDS011;60843;52.062;4.508;2022-08-03T02:46:42;8.35;;;1.90;;
72728;SDS011;60843;52.062;4.508;2022-08-03T02:49:10;7.85;;;1.80;;
72728;SDS011;60843;52.062;4.508;2022-08-03T02:51:36;8.77;;;1.98;;
72728;SDS011;60843;52.062;4.508;2022-08-03T02:54:03;9.48;;;2.10;;
72728;SDS011;60843;52.062;4.508;2022-08-03T02:56:29;13.07;;;2.00;;
72728;SDS011;60843;52.062;4.508;2022-08-03T02:58:55;8.38;;;1.75;;
72728;SDS011;60843;52.062;4.508;2022-08-03T03:01:22;7.85;;;1.92;;
72728;SDS011;60843;52.062;4.508;2022-08-03T03:03:49;11.63;;;2.10;;
72728;SDS011;60843;52.062;4.508;2022-08-03T03:06:15;11.05;;;1.52;;
72728;SDS011;60843;52.062;4.508;2022-08-03T03:08:41;9.80;;;1.83;;
72728;SDS011;60843;52.062;4.508;2022-08-03T03:11:07;12.23;;;1.88;;
72728;SDS011;60843;52.062;4.508;2022-08-03T03:13:34;13.18;;;2.05;;
72728;SDS011;60843;52.062;4.508;2022-08-03T03:16:01;8.73;;;1.58;;
72728;SDS011;60843;52.062;4.508;2022-08-03T03:18:30;12.48;;;2.15;;
72728;SDS011;60843;52.062;4.508;2022-08-03T03:20:56;8.85;;;1.88;;
72728;SDS011;60843;52.062;4.508;2022-08-03T03:23:22;12.88;;;2.10;;
72728;SDS011;60843;52.062;4.508;2022-08-03T03:25:49;14.60;;;2.15;;
72728;SDS011;60843;52.062;4.508;2022-08-03T03:28:15;11.00;;;1.98;;
72728;SDS011;60843;52.062;4.508;2022-08-03T03:30:41;9.85;;;1.88;;
72728;SDS011;60843;52.062;4.508;2022-08-03T03:33:07;6.88;;;1.77;;
72728;SDS011;60843;52.062;4.508;2022-08-03T03:35:32;12.40;;;2.60;;
72728;SDS011;60843;52.062;4.508;2022-08-03T03:37:58;9.18;;;2.47;;
72728;SDS011;60843;52.062;4.508;2022-08-03T03:40:24;7.78;;;2.03;;
72728;SDS011;60843;52.062;4.508;2022-08-03T03:42:50;15.07;;;2.22;;
72728;SDS011;60843;52.062;4.508;2022-08-03T03:45:16;10.57;;;2.47;;
72728;SDS011;60843;52.062;4.508;2022-08-03T03:47:42;8.98;;;2.28;;
72728;SDS011;60843;52.062;4.508;2022-08-03T03:50:07;9.68;;;2.10;;
72728;SDS011;60843;52.062;4.508;2022-08-03T03:52:34;10.32;;;2.08;;
72728;SDS011;60843;52.062;4.508;2022-08-03T03:55:00;15.65;;;1.90;;
72728;SDS011;60843;52.062;4.508;2022-08-03T03:57:26;9.63;;;1.80;;
72728;SDS011;60843;52.062;4.508;2022-08-03T03:59:52;10.65;;;1.90;;
72728;SDS011;60843;52.062;4.508;2022-08-03T04:02:17;7.70;;;1.73;;
72728;SDS011;60843;52.062;4.508;2022-08-03T04:04:42;13.13;;;2.95;;
72728;SDS011;60843;52.062;4.508;2022-08-03T04:07:26;9.60;;;1.88;;
72728;SDS011;60843;52.062;4.508;2022-08-03T04:10:16;18.92;;;2.35;;
72728;SDS011;60843;52.062;4.508;2022-08-03T04:13:03;7.97;;;1.92;;
72728;SDS011;60843;52.062;4.508;2022-08-03T04:15:31;7.25;;;2.03;;
72728;SDS011;60843;52.062;4.508;2022-08-03T04:17:57;13.50;;;2.10;;
72728;SDS011;60843;52.062;4.508;2022-08-03T04:20:25;13.13;;;2.22;;
72728;SDS011;60843;52.062;4.508;2022-08-03T04:22:52;14.88;;;1.95;;
72728;SDS011;60843;52.062;4.508;2022-08-03T04:25:19;14.07;;;2.08;;
72728;SDS011;60843;52.062;4.508;2022-08-03T04:27:45;7.05;;;2.25;;
72728;SDS011;60843;52.062;4.508;2022-08-03T04:30:12;7.22;;;2.50;;
72728;SDS011;60843;52.062;4.508;2022-08-03T04:32:38;9.27;;;2.05;;
72728;SDS011;60843;52.062;4.508;2022-08-03T04:35:04;11.55;;;1.98;;
72728;SDS011;60843;52.062;4.508;2022-08-03T04:37:32;12.55;;;2.28;;
72728;SDS011;60843;52.062;4.508;2022-08-03T04:40:05;8.50;;;2.10;;
72728;SDS011;60843;52.062;4.508;2022-08-03T04:42:32;9.20;;;2.30;;
72728;SDS011;60843;52.062;4.508;2022-08-03T04:44:58;19.13;;;3.15;;
72728;SDS011;60843;52.062;4.508;2022-08-03T04:47:24;7.80;;;2.20;;
72728;SDS011;60843;52.062;4.508;2022-08-03T04:49:49;13.65;;;2.97;;
72728;SDS011;60843;52.062;4.508;2022-08-03T04:52:15;7.85;;;2.03;;
72728;SDS011;60843;52.062;4.508;2022-08-03T04:54:41;8.65;;;2.08;;
72728;SDS011;60843;52.062;4.508;2022-08-03T04:57:09;9.75;;;2.20;;
72728;SDS011;60843;52.062;4.508;2022-08-03T04:59:35;10.48;;;2.28;;
72728;SDS011;60843;52.062;4.508;2022-08-03T05:02:00;12.15;;;2.15;;
72728;SDS011;60843;52.062;4.508;2022-08-03T05:04:26;17.05;;;2.40;;
72728;SDS011;60843;52.062;4.508;2022-08-03T05:06:51;16.30;;;2.63;;
72728;SDS011;60843;52.062;4.508;2022-08-03T05:09:17;9.73;;;2.17;;
72728;SDS011;60843;52.062;4.508;2022-08-03T05:11:42;6.70;;;2.33;;
72728;SDS011;60843;52.062;4.508;2022-08-03T05:14:07;11.17;;;2.43;;
72728;SDS011;60843;52.062;4.508;2022-08-03T05:16:33;11.98;;;2.35;;
72728;SDS011;60843;52.062;4.508;2022-08-03T05:18:58;19.73;;;2.87;;
72728;SDS011;60843;52.062;4.508;2022-08-03T05:21:24;10.67;;;2.43;;
72728;SDS011;60843;52.062;4.508;2022-08-03T05:23:49;8.52;;;2.25;;
72728;SDS011;60843;52.062;4.508;2022-08-03T05:26:14;11.75;;;2.70;;
72728;SDS011;60843;52.062;4.508;2022-08-03T05:28:40;11.60;;;2.33;;
72728;SDS011;60843;52.062;4.508;2022-08-03T05:31:05;17.83;;;2.35;;
72728;SDS011;60843;52.062;4.508;2022-08-03T05:33:31;16.67;;;3.45;;
72728;SDS011;60843;52.062;4.508;2022-08-03T05:35:56;20.20;;;2.72;;
72728;SDS011;60843;52.062;4.508;2022-08-03T05:38:22;12.70;;;2.83;;
72728;SDS011;60843;52.062;4.508;2022-08-03T05:40:47;8.98;;;2.20;;
72728;SDS011;60843;52.062;4.508;2022-08-03T05:43:12;25.00;;;3.17;;
72728;SDS011;60843;52.062;4.508;2022-08-03T05:45:38;15.80;;;3.13;;
72728;SDS011;60843;52.062;4.508;2022-08-03T05:48:04;10.98;;;2.40;;
72728;SDS011;60843;52.062;4.508;2022-08-03T05:50:29;10.32;;;2.83;;
72728;SDS011;60843;52.062;4.508;2022-08-03T05:52:55;11.32;;;3.20;;
72728;SDS011;60843;52.062;4.508;2022-08-03T05:55:23;13.07;;;2.67;;
72728;SDS011;60843;52.062;4.508;2022-08-03T05:57:48;13.55;;;2.95;;
72728;SDS011;60843;52.062;4.508;2022-08-03T06:00:14;13.05;;;3.60;;
72728;SDS011;60843;52.062;4.508;2022-08-03T06:02:40;14.18;;;3.05;;
72728;SDS011;60843;52.062;4.508;2022-08-03T06:05:05;10.88;;;3.65;;
72728;SDS011;60843;52.062;4.508;2022-08-03T06:07:31;18.00;;;3.92;;
72728;SDS011;60843;52.062;4.508;2022-08-03T06:09:57;19.50;;;5.28;;
72728;SDS011;60843;52.062;4.508;2022-08-03T06:12:22;13.38;;;5.38;;
72728;SDS011;60843;52.062;4.508;2022-08-03T06:14:47;19.03;;;5.37;;
72728;SDS011;60843;52.062;4.508;2022-08-03T06:17:13;17.53;;;4.63;;
72728;SDS011;60843;52.062;4.508;2022-08-03T06:19:38;19.20;;;6.10;;
72728;SDS011;60843;52.062;4.508;2022-08-03T06:22:03;17.87;;;5.60;;
72728;SDS011;60843;52.062;4.508;2022-08-03T06:24:29;21.55;;;4.97;;
72728;SDS011;60843;52.062;4.508;2022-08-03T06:26:55;24.85;;;6.07;;
72728;SDS011;60843;52.062;4.508;2022-08-03T06:29:20;22.55;;;6.50;;
72728;SDS011;60843;52.062;4.508;2022-08-03T06:31:46;15.93;;;6.38;;
72728;SDS011;60843;52.062;4.508;2022-08-03T06:34:11;16.97;;;5.70;;
72728;SDS011;60843;52.062;4.508;2022-08-03T06:36:37;19.08;;;5.53;;
72728;SDS011;60843;52.062;4.508;2022-08-03T06:39:02;14.38;;;5.60;;
72728;SDS011;60843;52.062;4.508;2022-08-03T06:41:28;16.58;;;5.90;;
72728;SDS011;60843;52.062;4.508;2022-08-03T06:43:53;18.40;;;5.67;;
72728;SDS011;60843;52.062;4.508;2022-08-03T06:46:19;17.30;;;5.70;;
72728;SDS011;60843;52.062;4.508;2022-08-03T06:48:45;14.25;;;4.88;;
72728;SDS011;60843;52.062;4.508;2022-08-03T06:51:10;14.50;;;5.10;;
72728;SDS011;60843;52.062;4.508;2022-08-03T06:53:36;12.13;;;4.53;;
72728;SDS011;60843;52.062;4.508;2022-08-03T06:56:03;15.88;;;4.78;;
72728;SDS011;60843;52.062;4.508;2022-08-03T06:58:29;16.27;;;4.90;;
72728;SDS011;60843;52.062;4.508;2022-08-03T07:00:54;18.40;;;5.33;;
72728;SDS011;60843;52.062;4.508;2022-08-03T07:03:20;15.17;;;4.90;;
72728;SDS011;60843;52.062;4.508;2022-08-03T07:05:45;16.25;;;5.28;;
72728;SDS011;60843;52.062;4.508;2022-08-03T07:08:11;12.67;;;4.53;;
72728;SDS011;60843;52.062;4.508;2022-08-03T07:10:37;15.40;;;4.40;;
72728;SDS011;60843;52.062;4.508;2022-08-03T07:13:03;19.98;;;5.18;;
72728;SDS011;60843;52.062;4.508;2022-08-03T07:15:28;14.05;;;4.70;;
72728;SDS011;60843;52.062;4.508;2022-08-03T07:17:54;15.57;;;5.10;;
72728;SDS011;60843;52.062;4.508;2022-08-03T07:20:20;14.43;;;5.53;;
72728;SDS011;60843;52.062;4.508;2022-08-03T07:22:45;13.30;;;5.37;;
72728;SDS011;60843;52.062;4.508;2022-08-03T07:25:11;19.17;;;5.75;;
72728;SDS011;60843;52.062;4.508;2022-08-03T07:27:37;16.23;;;5.40;;
72728;SDS011;60843;52.062;4.508;2022-08-03T07:30:04;11.65;;;5.25;;
72728;SDS011;60843;52.062;4.508;2022-08-03T07:32:30;15.88;;;6.15;;
72728;SDS011;60843;52.062;4.508;2022-08-03T07:34:56;25.40;;;5.72;;
72728;SDS011;60843;52.062;4.508;2022-08-03T07:37:21;22.60;;;6.70;;
72728;SDS011;60843;52.062;4.508;2022-08-03T07:39:46;13.85;;;5.63;;
72728;SDS011;60843;52.062;4.508;2022-08-03T07:42:12;15.35;;;4.90;;
72728;SDS011;60843;52.062;4.508;2022-08-03T07:44:38;11.48;;;4.65;;
72728;SDS011;60843;52.062;4.508;2022-08-03T07:47:03;12.48;;;5.25;;
72728;SDS011;60843;52.062;4.508;2022-08-03T07:49:30;13.48;;;5.72;;
72728;SDS011;60843;52.062;4.508;2022-08-03T07:51:55;18.45;;;6.15;;
72728;SDS011;60843;52.062;4.508;2022-08-03T07:54:39;15.70;;;5.82;;
72728;SDS011;60843;52.062;4.508;2022-08-03T07:57:04;17.02;;;5.75;;
72728;SDS011;60843;52.062;4.508;2022-08-03T07:59:30;17.05;;;5.30;;
72728;SDS011;60843;52.062;4.508;2022-08-03T08:01:55;20.00;;;5.57;;
72728;SDS011;60843;52.062;4.508;2022-08-03T08:04:21;13.75;;;5.03;;
72728;SDS011;60843;52.062;4.508;2022-08-03T08:06:46;13.80;;;5.22;;
72728;SDS011;60843;52.062;4.508;2022-08-03T08:09:12;20.23;;;5.88;;
72728;SDS011;60843;52.062;4.508;2022-08-03T08:11:38;15.35;;;4.50;;
72728;SDS011;60843;52.062;4.508;2022-08-03T08:14:03;15.88;;;5.03;;
72728;SDS011;60843;52.062;4.508;2022-08-03T08:16:29;12.20;;;5.53;;
72728;SDS011;60843;52.062;4.508;2022-08-03T08:18:55;15.23;;;5.68;;
72728;SDS011;60843;52.062;4.508;2022-08-03T08:21:20;17.48;;;6.07;;
72728;SDS011;60843;52.062;4.508;2022-08-03T08:23:45;20.17;;;5.80;;
72728;SDS011;60843;52.062;4.508;2022-08-03T08:26:11;16.23;;;5.77;;
72728;SDS011;60843;52.062;4.508;2022-08-03T08:28:37;16.33;;;5.50;;
72728;SDS011;60843;52.062;4.508;2022-08-03T08:31:02;15.07;;;5.38;;
72728;SDS011;60843;52.062;4.508;2022-08-03T08:33:28;14.30;;;6.07;;
72728;SDS011;60843;52.062;4.508;2022-08-03T08:35:54;15.40;;;5.72;;
72728;SDS011;60843;52.062;4.508;2022-08-03T08:38:19;16.50;;;6.37;;
72728;SDS011;60843;52.062;4.508;2022-08-03T08:40:45;12.57;;;6.10;;
72728;SDS011;60843;52.062;4.508;2022-08-03T08:43:11;14.80;;;6.38;;
72728;SDS011;60843;52.062;4.508;2022-08-03T08:45:37;10.15;;;5.97;;
72728;SDS011;60843;52.062;4.508;2022-08-03T08:48:02;15.13;;;5.65;;
72728;SDS011;60843;52.062;4.508;2022-08-03T08:50:29;13.18;;;6.07;;
72728;SDS011;60843;52.062;4.508;2022-08-03T08:52:55;15.35;;;6.20;;
72728;SDS011;60843;52.062;4.508;2022-08-03T08:55:21;14.65;;;5.80;;
72728;SDS011;60843;52.062;4.508;2022-08-03T08:57:48;17.35;;;5.85;;
72728;SDS011;60843;52.062;4.508;2022-08-03T09:00:15;14.18;;;5.65;;
72728;SDS011;60843;52.062;4.508;2022-08-03T09:02:41;12.32;;;5.57;;
72728;SDS011;60843;52.062;4.508;2022-08-03T09:05:14;10.65;;;6.30;;
72728;SDS011;60843;52.062;4.508;2022-08-03T09:07:43;14.20;;;6.38;;
72728;SDS011;60843;52.062;4.508;2022-08-03T09:10:10;13.85;;;5.70;;
72728;SDS011;60843;52.062;4.508;2022-08-03T09:12:36;14.05;;;6.13;;
72728;SDS011;60843;52.062;4.508;2022-08-03T09:17:41;14.82;;;6.53;;
72728;SDS011;60843;52.062;4.508;2022-08-03T09:20:06;10.25;;;5.32;;
72728;SDS011;60843;52.062;4.508;2022-08-03T09:22:33;14.43;;;5.55;;
72728;SDS011;60843;52.062;4.508;2022-08-03T09:25:05;12.13;;;6.03;;
72728;SDS011;60843;52.062;4.508;2022-08-03T09:27:41;15.00;;;5.95;;
72728;SDS011;60843;52.062;4.508;2022-08-03T09:30:12;16.05;;;6.05;;
72728;SDS011;60843;52.062;4.508;2022-08-03T09:32:38;11.75;;;5.70;;
72728;SDS011;60843;52.062;4.508;2022-08-03T09:35:04;17.52;;;5.60;;
72728;SDS011;60843;52.062;4.508;2022-08-03T09:37:30;11.63;;;5.75;;
72728;SDS011;60843;52.062;4.508;2022-08-03T09:39:55;12.27;;;5.88;;
72728;SDS011;60843;52.062;4.508;2022-08-03T09:42:20;18.43;;;5.60;;
72728;SDS011;60843;52.062;4.508;2022-08-03T09:44:48;17.02;;;5.32;;
72728;SDS011;60843;52.062;4.508;2022-08-03T09:47:15;12.43;;;5.20;;
72728;SDS011;60843;52.062;4.508;2022-08-03T09:50:02;15.73;;;5.10;;
72728;SDS011;60843;52.062;4.508;2022-08-03T09:52:38;19.60;;;5.30;;
72728;SDS011;60843;52.062;4.508;2022-08-03T09:55:08;14.27;;;4.93;;
72728;SDS011;60843;52.062;4.508;2022-08-03T09:57:38;17.10;;;4.70;;
72728;SDS011;60843;52.062;4.508;2022-08-03T10:00:15;12.60;;;4.88;;
72728;SDS011;60843;52.062;4.508;2022-08-03T10:02:41;12.55;;;5.00;;
72728;SDS011;60843;52.062;4.508;2022-08-03T10:05:14;12.95;;;5.80;;
72728;SDS011;60843;52.062;4.508;2022-08-03T10:10:15;12.93;;;5.40;;
72728;SDS011;60843;52.062;4.508;2022-08-03T10:12:42;14.60;;;5.88;;
72728;SDS011;60843;52.062;4.508;2022-08-03T10:15:09;13.95;;;5.20;;
72728;SDS011;60843;52.062;4.508;2022-08-03T10:17:35;11.57;;;5.30;;
72728;SDS011;60843;52.062;4.508;2022-08-03T10:20:01;16.30;;;5.50;;
72728;SDS011;60843;52.062;4.508;2022-08-03T10:25:05;15.45;;;4.85;;
72728;SDS011;60843;52.062;4.508;2022-08-03T10:27:33;17.08;;;5.03;;
72728;SDS011;60843;52.062;4.508;2022-08-03T10:30:01;14.32;;;4.93;;
72728;SDS011;60843;52.062;4.508;2022-08-03T10:32:30;15.68;;;4.90;;
72728;SDS011;60843;52.062;4.508;2022-08-03T10:35:18;17.02;;;4.25;;
72728;SDS011;60843;52.062;4.508;2022-08-03T10:40:19;12.50;;;4.00;;
72728;SDS011;60843;52.062;4.508;2022-08-03T10:42:46;10.57;;;4.15;;
72728;SDS011;60843;52.062;4.508;2022-08-03T10:45:18;11.48;;;3.83;;
72728;SDS011;60843;52.062;4.508;2022-08-03T10:47:48;16.58;;;4.25;;
72728;SDS011;60843;52.062;4.508;2022-08-03T10:50:15;12.07;;;4.20;;
72728;SDS011;60843;52.062;4.508;2022-08-03T10:52:57;12.55;;;3.90;;
72728;SDS011;60843;52.062;4.508;2022-08-03T11:01:15;10.10;;;2.72;;
72728;SDS011;60843;52.062;4.508;2022-08-03T11:06:20;12.57;;;3.33;;
72728;SDS011;60843;52.062;4.508;2022-08-03T11:11:39;8.50;;;2.70;;
72728;SDS011;60843;52.062;4.508;2022-08-03T11:14:09;8.95;;;2.90;;
72728;SDS011;60843;52.062;4.508;2022-08-03T11:16:42;9.27;;;3.28;;
72728;SDS011;60843;52.062;4.508;2022-08-03T11:19:17;12.27;;;2.45;;
72728;SDS011;60843;52.062;4.508;2022-08-03T11:30:00;9.48;;;2.45;;
72728;SDS011;60843;52.062;4.508;2022-08-03T11:35:56;9.80;;;1.80;;
72728;SDS011;60843;52.062;4.508;2022-08-03T11:38:08;8.95;;;2.20;;
72728;SDS011;60843;52.062;4.508;2022-08-03T11:46:02;8.45;;;2.20;;
72728;SDS011;60843;52.062;4.508;2022-08-03T11:50:57;14.48;;;2.38;;
72728;SDS011;60843;52.062;4.508;2022-08-03T11:53:23;8.35;;;1.90;;
72728;SDS011;60843;52.062;4.508;2022-08-03T11:55:49;8.52;;;1.98;;
72728;SDS011;60843;52.062;4.508;2022-08-03T11:58:18;9.75;;;2.70;;
72728;SDS011;60843;52.062;4.508;2022-08-03T12:00:44;9.80;;;1.90;;
72728;SDS011;60843;52.062;4.508;2022-08-03T12:03:11;9.75;;;2.45;;
72728;SDS011;60843;52.062;4.508;2022-08-03T12:08:07;7.95;;;1.77;;
72728;SDS011;60843;52.062;4.508;2022-08-03T12:10:33;7.13;;;1.63;;
72728;SDS011;60843;52.062;4.508;2022-08-03T12:12:59;9.75;;;1.77;;
72728;SDS011;60843;52.062;4.508;2022-08-03T12:15:29;7.80;;;2.00;;
72728;SDS011;60843;52.062;4.508;2022-08-03T12:17:57;9.80;;;1.85;;
72728;SDS011;60843;52.062;4.508;2022-08-03T12:20:26;12.63;;;2.05;;
72728;SDS011;60843;52.062;4.508;2022-08-03T12:22:53;4.90;;;1.48;;
72728;SDS011;60843;52.062;4.508;2022-08-03T12:25:25;8.00;;;1.83;;
72728;SDS011;60843;52.062;4.508;2022-08-03T12:27:52;11.23;;;2.00;;
72728;SDS011;60843;52.062;4.508;2022-08-03T12:30:18;8.90;;;1.45;;
72728;SDS011;60843;52.062;4.508;2022-08-03T12:32:47;6.43;;;1.80;;
72728;SDS011;60843;52.062;4.508;2022-08-03T12:35:22;7.47;;;1.60;;
72728;SDS011;60843;52.062;4.508;2022-08-03T12:37:49;8.18;;;2.05;;
72728;SDS011;60843;52.062;4.508;2022-08-03T12:40:22;9.70;;;1.58;;
72728;SDS011;60843;52.062;4.508;2022-08-03T12:42:48;14.00;;;1.95;;
72728;SDS011;60843;52.062;4.508;2022-08-03T12:45:24;7.50;;;1.30;;
72728;SDS011;60843;52.062;4.508;2022-08-03T12:47:55;7.03;;;1.90;;
72728;SDS011;60843;52.062;4.508;2022-08-03T12:50:31;10.10;;;1.75;;
72728;SDS011;60843;52.062;4.508;2022-08-03T12:52:58;9.77;;;1.77;;
72728;SDS011;60843;52.062;4.508;2022-08-03T12:55:25;12.20;;;1.83;;
72728;SDS011;60843;52.062;4.508;2022-08-03T12:58:04;6.95;;;1.75;;
72728;SDS011;60843;52.062;4.508;2022-08-03T13:00:31;12.07;;;2.05;;
72728;SDS011;60843;52.062;4.508;2022-08-03T13:03:04;11.98;;;2.53;;
72728;SDS011;60843;52.062;4.508;2022-08-03T13:05:31;7.30;;;1.35;;
72728;SDS011;60843;52.062;4.508;2022-08-03T13:08:16;7.20;;;1.30;;
72728;SDS011;60843;52.062;4.508;2022-08-03T13:10:48;12.00;;;1.92;;
72728;SDS011;60843;52.062;4.508;2022-08-03T13:13:14;5.72;;;1.60;;
72728;SDS011;60843;52.062;4.508;2022-08-03T13:15:41;8.50;;;1.80;;
72728;SDS011;60843;52.062;4.508;2022-08-03T13:18:06;8.98;;;1.70;;
72728;SDS011;60843;52.062;4.508;2022-08-03T13:20:32;9.73;;;1.77;;
72728;SDS011;60843;52.062;4.508;2022-08-03T13:22:59;8.85;;;1.50;;
72728;SDS011;60843;52.062;4.508;2022-08-03T13:25:28;6.90;;;1.80;;
72728;SDS011;60843;52.062;4.508;2022-08-03T13:27:53;9.30;;;1.83;;
72728;SDS011;60843;52.062;4.508;2022-08-03T13:30:18;7.05;;;1.83;;
72728;SDS011;60843;52.062;4.508;2022-08-03T13:32:44;7.65;;;1.50;;
72728;SDS011;60843;52.062;4.508;2022-08-03T13:35:10;7.30;;;2.03;;
72728;SDS011;60843;52.062;4.508;2022-08-03T13:37:35;6.63;;;1.50;;
72728;SDS011;60843;52.062;4.508;2022-08-03T13:40:02;8.85;;;1.58;;
72728;SDS011;60843;52.062;4.508;2022-08-03T13:42:31;5.78;;;1.40;;
72728;SDS011;60843;52.062;4.508;2022-08-03T13:44:58;6.57;;;1.50;;
72728;SDS011;60843;52.062;4.508;2022-08-03T13:47:23;5.95;;;1.30;;
72728;SDS011;60843;52.062;4.508;2022-08-03T13:49:49;6.03;;;1.38;;
72728;SDS011;60843;52.062;4.508;2022-08-03T13:52:17;4.80;;;1.52;;
72728;SDS011;60843;52.062;4.508;2022-08-03T13:54:43;3.95;;;1.25;;
72728;SDS011;60843;52.062;4.508;2022-08-03T13:57:08;6.28;;;1.40;;
72728;SDS011;60843;52.062;4.508;2022-08-03T13:59:35;4.43;;;1.30;;
72728;SDS011;60843;52.062;4.508;2022-08-03T14:02:01;3.17;;;1.02;;
72728;SDS011;60843;52.062;4.508;2022-08-03T14:04:26;5.07;;;0.97;;
72728;SDS011;60843;52.062;4.508;2022-08-03T14:06:52;6.43;;;1.33;;
72728;SDS011;60843;52.062;4.508;2022-08-03T14:09:17;3.57;;;1.20;;
72728;SDS011;60843;52.062;4.508;2022-08-03T14:11:43;6.88;;;1.45;;
72728;SDS011;60843;52.062;4.508;2022-08-03T14:14:09;6.85;;;1.85;;
72728;SDS011;60843;52.062;4.508;2022-08-03T14:16:35;3.90;;;0.93;;
72728;SDS011;60843;52.062;4.508;2022-08-03T14:19:00;4.03;;;1.13;;
72728;SDS011;60843;52.062;4.508;2022-08-03T14:21:26;6.90;;;1.00;;
72728;SDS011;60843;52.062;4.508;2022-08-03T14:23:51;6.20;;;1.10;;
72728;SDS011;60843;52.062;4.508;2022-08-03T14:26:17;5.28;;;1.00;;
72728;SDS011;60843;52.062;4.508;2022-08-03T14:28:44;10.70;;;1.45;;
72728;SDS011;60843;52.062;4.508;2022-08-03T14:31:10;5.35;;;0.77;;
72728;SDS011;60843;52.062;4.508;2022-08-03T14:33:35;5.13;;;1.35;;
72728;SDS011;60843;52.062;4.508;2022-08-03T14:36:00;3.10;;;0.77;;
72728;SDS011;60843;52.062;4.508;2022-08-03T14:38:26;8.52;;;1.35;;
72728;SDS011;60843;52.062;4.508;2022-08-03T14:40:51;6.78;;;1.38;;
72728;SDS011;60843;52.062;4.508;2022-08-03T14:43:17;4.15;;;1.00;;
72728;SDS011;60843;52.062;4.508;2022-08-03T14:45:45;4.47;;;0.80;;
72728;SDS011;60843;52.062;4.508;2022-08-03T14:48:20;5.63;;;0.77;;
72728;SDS011;60843;52.062;4.508;2022-08-03T14:50:46;3.63;;;0.90;;
72728;SDS011;60843;52.062;4.508;2022-08-03T14:53:12;2.55;;;0.80;;
72728;SDS011;60843;52.062;4.508;2022-08-03T14:55:38;4.93;;;0.63;;
72728;SDS011;60843;52.062;4.508;2022-08-03T14:58:03;4.85;;;1.30;;
72728;SDS011;60843;52.062;4.508;2022-08-03T15:00:31;9.65;;;3.22;;
72728;SDS011;60843;52.062;4.508;2022-08-03T15:02:57;2.97;;;0.80;;
72728;SDS011;60843;52.062;4.508;2022-08-03T15:05:22;4.90;;;1.00;;
72728;SDS011;60843;52.062;4.508;2022-08-03T15:07:48;7.53;;;1.10;;
72728;SDS011;60843;52.062;4.508;2022-08-03T15:10:13;4.40;;;0.73;;
72728;SDS011;60843;52.062;4.508;2022-08-03T15:12:40;3.50;;;0.60;;
72728;SDS011;60843;52.062;4.508;2022-08-03T15:15:05;1.95;;;0.77;;
72728;SDS011;60843;52.062;4.508;2022-08-03T15:17:31;5.38;;;0.80;;
72728;SDS011;60843;52.062;4.508;2022-08-03T15:19:56;4.60;;;0.90;;
72728;SDS011;60843;52.062;4.508;2022-08-03T15:22:21;5.60;;;1.23;;
72728;SDS011;60843;52.062;4.508;2022-08-03T15:24:47;4.20;;;0.73;;
72728;SDS011;60843;52.062;4.508;2022-08-03T15:27:13;5.00;;;0.90;;
72728;SDS011;60843;52.062;4.508;2022-08-03T15:29:38;4.88;;;0.95;;
72728;SDS011;60843;52.062;4.508;2022-08-03T15:32:04;2.95;;;0.68;;
72728;SDS011;60843;52.062;4.508;2022-08-03T15:34:29;4.32;;;0.80;;
72728;SDS011;60843;52.062;4.508;2022-08-03T15:36:55;3.00;;;0.68;;
72728;SDS011;60843;52.062;4.508;2022-08-03T15:39:20;4.97;;;1.10;;